createdAt,value
2022-08-27T00:00:45.609Z,25.89
2022-08-27T00:03:12.782Z,25.89
2022-08-27T00:05:40.453Z,25.86
2022-08-27T00:08:09.269Z,25.85
2022-08-27T00:10:35.918Z,25.83
2022-08-27T00:13:02.784Z,25.80
2022-08-27T00:15:29.925Z,25.77
2022-08-27T00:17:56.980Z,25.74
2022-08-27T00:20:25.979Z,25.68
2022-08-27T00:22:53.405Z,25.65
2022-08-27T00:25:20.726Z,25.65
2022-08-27T00:27:47.295Z,25.61
2022-08-27T00:30:18.394Z,25.57
2022-08-27T00:32:45.519Z,25.55
2022-08-27T00:35:14.169Z,25.53
2022-08-27T00:37:40.696Z,25.51
2022-08-27T00:40:11.807Z,25.46
2022-08-27T00:42:38.724Z,25.46
2022-08-27T00:45:07.277Z,25.43
2022-08-27T00:47:36.454Z,25.43
2022-08-27T00:50:08.835Z,25.43
2022-08-27T00:52:43.289Z,25.41
2022-08-27T00:55:18.551Z,25.38
2022-08-27T00:57:51.210Z,25.37
2022-08-27T01:00:19.788Z,25.35
2022-08-27T01:02:47.579Z,25.36
2022-08-27T01:05:18.386Z,25.37
2022-08-27T01:07:49.563Z,25.31
2022-08-27T01:10:20.060Z,25.27
2022-08-27T01:12:53.512Z,25.24
2022-08-27T01:15:23.281Z,25.22
2022-08-27T01:17:50.831Z,25.21
2022-08-27T01:20:26.067Z,25.18
2022-08-27T01:23:17.408Z,25.17
2022-08-27T01:25:45.355Z,25.20
2022-08-27T01:28:13.620Z,25.18
2022-08-27T01:30:40.751Z,25.18
2022-08-27T01:33:14.689Z,25.13
2022-08-27T01:35:43.256Z,25.15
2022-08-27T01:38:18.970Z,25.15
2022-08-27T01:40:57.290Z,25.18
2022-08-27T01:43:24.538Z,25.17
2022-08-27T01:45:52.285Z,25.16
2022-08-27T01:48:20.911Z,25.16
2022-08-27T01:50:48.466Z,25.17
2022-08-27T01:53:18.618Z,25.18
2022-08-27T01:55:48.139Z,25.20
2022-08-27T01:58:16.855Z,25.20
2022-08-27T02:00:46.235Z,25.19
2022-08-27T02:03:12.876Z,25.19
2022-08-27T02:05:45.079Z,25.19
2022-08-27T02:08:13.170Z,25.18
2022-08-27T02:10:40.631Z,25.17
2022-08-27T02:13:08.182Z,25.16
2022-08-27T02:15:36.688Z,25.15
2022-08-27T02:18:04.106Z,25.17
2022-08-27T02:20:31.380Z,25.20
2022-08-27T02:22:58.623Z,25.18
2022-08-27T02:25:27.582Z,25.17
2022-08-27T02:27:54.540Z,25.15
2022-08-27T02:30:24.074Z,25.11
2022-08-27T02:32:52.191Z,25.10
2022-08-27T02:35:21.270Z,25.09
2022-08-27T02:37:47.921Z,25.07
2022-08-27T02:40:17.206Z,25.06
2022-08-27T02:42:44.886Z,25.05
2022-08-27T02:45:13.282Z,25.04
2022-08-27T02:47:40.260Z,25.06
2022-08-27T02:50:08.353Z,25.05
2022-08-27T02:52:35.556Z,25.05
2022-08-27T02:55:02.070Z,25.03
2022-08-27T02:57:28.786Z,25.02
2022-08-27T02:59:55.260Z,25.02
2022-08-27T03:02:22.135Z,25.00
2022-08-27T03:04:52.357Z,24.96
2022-08-27T03:07:19.290Z,24.95
2022-08-27T03:09:45.785Z,24.92
2022-08-27T03:12:12.885Z,24.88
2022-08-27T03:14:39.592Z,24.83
2022-08-27T03:17:24.603Z,24.81
2022-08-27T03:19:51.084Z,24.78
2022-08-27T03:22:17.585Z,24.76
2022-08-27T03:24:44.076Z,24.73
2022-08-27T03:27:10.636Z,24.71
2022-08-27T03:29:37.153Z,24.69
2022-08-27T03:32:06.902Z,24.66
2022-08-27T03:34:34.073Z,24.68
2022-08-27T03:37:01.431Z,24.65
2022-08-27T03:39:27.940Z,24.64
2022-08-27T03:41:55.845Z,24.61
2022-08-27T03:44:25.465Z,24.57
2022-08-27T03:46:52.560Z,24.56
2022-08-27T03:49:21.415Z,24.55
2022-08-27T03:51:50.343Z,24.53
2022-08-27T03:54:17.252Z,24.52
2022-08-27T03:56:43.899Z,24.51
2022-08-27T03:59:10.460Z,24.50
2022-08-27T04:01:37.129Z,24.50
2022-08-27T04:04:04.258Z,24.49
2022-08-27T04:06:30.787Z,24.48
2022-08-27T04:08:57.267Z,24.48
2022-08-27T04:11:23.978Z,24.49
2022-08-27T04:13:51.019Z,24.50
2022-08-27T04:16:17.721Z,24.49
2022-08-27T04:18:44.249Z,24.49
2022-08-27T04:21:13.340Z,24.46
2022-08-27T04:23:41.704Z,24.46
2022-08-27T04:26:10.928Z,24.44
2022-08-27T04:28:38.955Z,24.45
2022-08-27T04:31:16.402Z,24.43
2022-08-27T04:33:44.010Z,24.43
2022-08-27T04:36:18.639Z,24.42
2022-08-27T04:38:45.370Z,24.40
2022-08-27T04:41:21.611Z,24.39
2022-08-27T04:43:57.516Z,24.35
2022-08-27T04:46:29.485Z,24.38
2022-08-27T04:48:58.045Z,24.36
2022-08-27T04:51:24.659Z,24.38
2022-08-27T04:53:52.377Z,24.42
2022-08-27T04:56:22.318Z,24.40
2022-08-27T04:58:52.409Z,24.38
2022-08-27T05:01:22.573Z,24.37
2022-08-27T05:03:49.333Z,24.36
2022-08-27T05:06:17.463Z,24.35
2022-08-27T05:08:44.115Z,24.35
2022-08-27T05:11:14.980Z,24.35
2022-08-27T05:13:42.630Z,24.36
2022-08-27T05:16:12.309Z,24.36
2022-08-27T05:18:47.951Z,24.37
2022-08-27T05:21:21.047Z,24.36
2022-08-27T05:23:48.152Z,24.39
2022-08-27T05:26:15.639Z,24.39
2022-08-27T05:28:42.352Z,24.40
2022-08-27T05:31:11.729Z,24.39
2022-08-27T05:33:41.216Z,24.41
2022-08-27T05:36:14.473Z,24.41
2022-08-27T05:38:41.900Z,24.42
2022-08-27T05:41:14.224Z,24.41
2022-08-27T05:43:45.417Z,24.44
2022-08-27T05:46:17.172Z,24.44
2022-08-27T05:48:44.144Z,24.45
2022-08-27T05:51:14.600Z,24.43
2022-08-27T05:53:48.956Z,24.47
2022-08-27T05:56:21.411Z,24.50
2022-08-27T05:59:08.673Z,24.50
2022-08-27T06:01:40.838Z,24.48
2022-08-27T06:04:08.249Z,24.50
2022-08-27T06:06:39.431Z,24.48
2022-08-27T06:09:07.096Z,24.48
2022-08-27T06:11:34.128Z,24.49
2022-08-27T06:14:01.041Z,24.48
2022-08-27T06:16:27.992Z,24.48
2022-08-27T06:18:54.992Z,24.48
2022-08-27T06:21:24.483Z,24.47
2022-08-27T06:23:52.749Z,24.47
2022-08-27T06:26:21.346Z,24.48
2022-08-27T06:28:47.808Z,24.51
2022-08-27T06:31:17.623Z,24.54
2022-08-27T06:33:45.756Z,24.54
2022-08-27T06:36:16.092Z,24.53
2022-08-27T06:38:43.235Z,24.53
2022-08-27T06:41:16.571Z,24.54
2022-08-27T06:43:57.255Z,24.55
2022-08-27T06:46:26.265Z,24.57
2022-08-27T06:48:55.668Z,24.60
2022-08-27T06:51:26.395Z,24.60
2022-08-27T06:53:55.264Z,24.61
2022-08-27T06:56:22.980Z,24.64
2022-08-27T06:58:54.314Z,24.66
2022-08-27T07:01:28.114Z,24.66
2022-08-27T07:04:02.063Z,24.72
2022-08-27T07:06:30.614Z,24.75
2022-08-27T07:08:57.153Z,24.79
2022-08-27T07:11:24.166Z,24.87
2022-08-27T07:13:51.343Z,24.91
2022-08-27T07:16:23.276Z,24.94
2022-08-27T07:18:52.201Z,24.98
2022-08-27T07:21:20.797Z,25.01
2022-08-27T07:23:49.202Z,25.07
2022-08-27T07:26:17.169Z,25.11
2022-08-27T07:28:45.103Z,25.16
2022-08-27T07:31:13.690Z,25.20
2022-08-27T07:33:42.174Z,25.26
2022-08-27T07:36:17.343Z,25.33
2022-08-27T07:38:43.867Z,25.36
2022-08-27T07:41:13.282Z,25.41
2022-08-27T07:43:58.834Z,25.44
2022-08-27T07:46:26.064Z,25.49
2022-08-27T07:48:55.387Z,25.52
2022-08-27T07:51:23.590Z,25.54
2022-08-27T07:53:50.815Z,25.57
2022-08-27T07:56:18.680Z,25.59
2022-08-27T07:58:45.677Z,25.64
2022-08-27T08:01:16.668Z,25.64
2022-08-27T08:03:54.268Z,25.63
2022-08-27T08:06:20.834Z,25.63
2022-08-27T08:08:47.834Z,25.64
2022-08-27T08:11:17.849Z,25.67
2022-08-27T08:13:46.198Z,25.71
2022-08-27T08:16:13.892Z,25.69
2022-08-27T08:18:40.740Z,25.69
2022-08-27T08:21:10.777Z,25.67
2022-08-27T08:23:38.361Z,25.67
2022-08-27T08:26:05.580Z,25.68
2022-08-27T08:28:32.390Z,25.66
2022-08-27T08:30:59.296Z,25.64
2022-08-27T08:33:27.744Z,25.63
2022-08-27T08:35:54.415Z,25.64
2022-08-27T08:38:21.257Z,25.67
2022-08-27T08:40:50.662Z,25.68
2022-08-27T08:43:31.354Z,25.69
2022-08-27T08:46:07.852Z,25.75
2022-08-27T08:48:35.820Z,25.81
2022-08-27T08:51:10.187Z,25.84
2022-08-27T08:53:47.181Z,25.87
2022-08-27T08:56:25.663Z,25.87
2022-08-27T08:58:52.148Z,25.93
2022-08-27T09:01:21.592Z,25.97
2022-08-27T09:03:55.059Z,25.95
2022-08-27T09:06:39.036Z,25.96
2022-08-27T09:09:25.969Z,25.97
2022-08-27T09:12:00.840Z,25.99
2022-08-27T09:14:38.919Z,26.00
2022-08-27T09:17:11.519Z,26.04
2022-08-27T09:19:39.080Z,26.04
2022-08-27T09:22:28.506Z,26.01
2022-08-27T09:25:11.654Z,26.02
2022-08-27T09:27:44.040Z,26.04
2022-08-27T09:30:14.110Z,26.06
2022-08-27T09:32:40.678Z,26.08
2022-08-27T09:35:11.184Z,26.09
2022-08-27T09:37:48.059Z,26.09
2022-08-27T09:40:23.123Z,26.14
2022-08-27T09:42:53.375Z,26.16
2022-08-27T09:45:27.764Z,26.18
2022-08-27T09:48:03.809Z,26.20
2022-08-27T09:50:45.419Z,26.22
2022-08-27T09:53:23.668Z,26.25
2022-08-27T09:56:04.845Z,26.30
2022-08-27T09:58:34.447Z,26.36
2022-08-27T10:01:07.474Z,26.39
2022-08-27T10:03:34.279Z,26.44
2022-08-27T10:06:01.359Z,26.46
2022-08-27T10:08:50.522Z,26.47
2022-08-27T10:11:26.017Z,26.51
2022-08-27T10:14:07.307Z,26.52
2022-08-27T10:16:36.569Z,26.56
2022-08-27T10:19:34.085Z,26.51
2022-08-27T10:22:16.856Z,26.52
2022-08-27T10:24:55.593Z,26.53
2022-08-27T10:27:35.388Z,26.52
2022-08-27T10:30:09.334Z,26.53
2022-08-27T10:32:44.720Z,26.53
2022-08-27T10:35:29.119Z,26.51
2022-08-27T10:38:07.711Z,26.52
2022-08-27T10:40:54.698Z,26.57
2022-08-27T10:43:43.593Z,26.63
2022-08-27T10:46:36.230Z,26.64
2022-08-27T10:49:30.016Z,26.70
2022-08-27T10:52:37.877Z,26.77
2022-08-27T10:55:23.931Z,26.84
2022-08-27T10:58:11.088Z,26.90
2022-08-27T11:01:06.298Z,26.95
2022-08-27T11:03:36.085Z,27.05
2022-08-27T11:06:22.124Z,27.06
2022-08-27T11:09:07.401Z,27.12
2022-08-27T11:12:12.839Z,27.19
2022-08-27T11:14:55.235Z,27.22
2022-08-27T11:17:24.730Z,27.22
2022-08-27T11:20:01.683Z,27.19
2022-08-27T11:22:40.357Z,27.16
2022-08-27T11:25:46.691Z,27.11
2022-08-27T11:28:14.727Z,27.10
2022-08-27T11:31:04.181Z,27.04
2022-08-27T11:33:46.041Z,26.95
2022-08-27T11:36:39.208Z,26.85
2022-08-27T11:39:11.694Z,26.83
2022-08-27T11:42:00.037Z,26.76
2022-08-27T11:44:27.103Z,26.80
2022-08-27T11:47:06.744Z,26.79
2022-08-27T11:49:45.203Z,26.75
2022-08-27T11:52:19.993Z,26.74
2022-08-27T11:54:50.522Z,26.72
2022-08-27T11:57:32.621Z,26.68
2022-08-27T12:00:10.926Z,26.70
2022-08-27T12:02:37.406Z,26.72
2022-08-27T12:05:32.258Z,26.72
2022-08-27T12:07:59.700Z,26.79
2022-08-27T12:10:46.433Z,26.80
2022-08-27T12:13:32.561Z,26.82
2022-08-27T12:16:09.119Z,26.88
2022-08-27T12:18:56.070Z,26.90
2022-08-27T12:21:28.156Z,27.00
2022-08-27T12:23:55.233Z,27.08
2022-08-27T12:26:34.441Z,27.11
2022-08-27T12:29:38.119Z,27.14
2022-08-27T12:32:36.736Z,27.19
2022-08-27T12:35:20.300Z,27.22
2022-08-27T12:38:03.855Z,27.24
2022-08-27T12:40:45.928Z,27.24
2022-08-27T12:43:17.474Z,27.28
2022-08-27T12:45:48.362Z,27.28
2022-08-27T12:48:37.909Z,27.30
2022-08-27T12:51:12.463Z,27.32
2022-08-27T12:53:52.967Z,27.30
2022-08-27T12:56:44.348Z,27.28
2022-08-27T12:59:41.158Z,27.30
2022-08-27T13:02:42.039Z,27.30
2022-08-27T13:05:12.038Z,27.34
2022-08-27T13:07:45.046Z,27.36
2022-08-27T13:10:14.696Z,27.39
2022-08-27T13:12:42.449Z,27.45
2022-08-27T13:15:14.496Z,27.51
2022-08-27T13:17:45.689Z,27.58
2022-08-27T13:20:24.552Z,27.61
2022-08-27T13:22:53.218Z,27.68
2022-08-27T13:25:30.183Z,27.70
2022-08-27T13:28:07.674Z,27.74
2022-08-27T13:30:36.958Z,27.79
2022-08-27T13:33:05.944Z,27.81
2022-08-27T13:35:32.681Z,27.83
2022-08-27T13:38:01.175Z,27.82
2022-08-27T13:40:30.608Z,27.86
2022-08-27T13:43:04.183Z,27.88
2022-08-27T13:45:37.979Z,27.88
2022-08-27T13:48:05.707Z,27.87
2022-08-27T13:50:34.674Z,27.84
2022-08-27T13:53:28.939Z,27.82
2022-08-27T13:55:57.856Z,27.83
2022-08-27T13:58:28.585Z,27.81
2022-08-27T14:01:06.761Z,27.80
2022-08-27T14:03:37.046Z,27.79
2022-08-27T14:06:04.104Z,27.78
2022-08-27T14:08:34.456Z,27.77
2022-08-27T14:11:08.615Z,27.76
2022-08-27T14:13:46.779Z,27.75
2022-08-27T14:16:22.981Z,27.76
2022-08-27T14:19:01.205Z,27.75
2022-08-27T14:21:27.760Z,27.80
2022-08-27T14:23:54.263Z,27.83
2022-08-27T14:26:21.031Z,27.87
2022-08-27T14:28:47.657Z,27.95
2022-08-27T14:31:14.741Z,27.99
2022-08-27T14:33:41.705Z,28.04
2022-08-27T14:36:09.331Z,28.07
2022-08-27T14:38:39.509Z,28.09
2022-08-27T14:41:08.430Z,28.12
2022-08-27T14:43:35.155Z,28.16
2022-08-27T14:46:03.011Z,28.20
2022-08-27T14:48:33.558Z,28.25
2022-08-27T14:51:05.983Z,28.30
2022-08-27T14:53:32.484Z,28.35
2022-08-27T14:56:00.584Z,28.40
2022-08-27T14:58:27.332Z,28.45
2022-08-27T15:00:56.103Z,28.49
2022-08-27T15:03:25.514Z,28.47
2022-08-27T15:05:54.800Z,28.47
2022-08-27T15:08:27.615Z,28.43
2022-08-27T15:10:56.758Z,28.39
2022-08-27T15:13:23.608Z,28.35
2022-08-27T15:15:50.136Z,28.33
2022-08-27T15:18:18.962Z,28.29
2022-08-27T15:20:45.577Z,28.23
2022-08-27T15:23:14.063Z,28.18
2022-08-27T15:25:41.213Z,28.15
2022-08-27T15:28:08.221Z,28.13
2022-08-27T15:30:36.868Z,28.05
2022-08-27T15:33:06.063Z,27.99
2022-08-27T15:35:32.887Z,27.95
2022-08-27T15:38:00.609Z,27.96
2022-08-27T15:40:31.588Z,27.94
2022-08-27T15:43:02.080Z,27.95
2022-08-27T15:45:30.099Z,27.96
2022-08-27T15:47:57.539Z,27.97
2022-08-27T15:50:25.668Z,27.97
2022-08-27T15:52:58.198Z,27.97
2022-08-27T15:55:28.264Z,27.98
2022-08-27T15:57:55.450Z,27.99
2022-08-27T16:00:23.237Z,28.00
2022-08-27T16:02:51.118Z,27.99
2022-08-27T16:05:19.474Z,28.00
2022-08-27T16:07:46.911Z,28.00
2022-08-27T16:10:14.565Z,27.99
2022-08-27T16:12:41.112Z,27.97
2022-08-27T16:15:08.795Z,27.96
2022-08-27T16:17:35.879Z,27.93
2022-08-27T16:20:03.828Z,27.90
2022-08-27T16:22:30.376Z,27.87
2022-08-27T16:24:56.940Z,27.84
2022-08-27T16:27:23.429Z,27.83
2022-08-27T16:29:50.573Z,27.81
2022-08-27T16:32:18.962Z,27.79
2022-08-27T16:34:52.524Z,27.75
2022-08-27T16:37:23.931Z,27.74
2022-08-27T16:39:50.988Z,27.71
2022-08-27T16:42:17.716Z,27.68
2022-08-27T16:44:44.276Z,27.67
2022-08-27T16:47:10.797Z,27.66
2022-08-27T16:49:55.862Z,27.66
2022-08-27T16:52:23.779Z,27.65
2022-08-27T16:54:51.574Z,27.63
2022-08-27T16:57:18.243Z,27.64
2022-08-27T16:59:44.737Z,27.63
2022-08-27T17:02:21.986Z,27.60
2022-08-27T17:05:07.292Z,27.64
2022-08-27T17:07:40.140Z,27.69
2022-08-27T17:10:13.189Z,27.73
2022-08-27T17:12:40.733Z,27.73
2022-08-27T17:15:07.947Z,27.70
2022-08-27T17:17:34.442Z,27.67
2022-08-27T17:20:01.048Z,27.64
2022-08-27T17:22:27.556Z,27.60
2022-08-27T17:24:54.058Z,27.57
2022-08-27T17:27:20.614Z,27.52
2022-08-27T17:29:47.209Z,27.51
2022-08-27T17:32:13.902Z,27.49
2022-08-27T17:34:40.470Z,27.46
2022-08-27T17:37:06.962Z,27.45
2022-08-27T17:39:33.502Z,27.42
2022-08-27T17:42:00.109Z,27.40
2022-08-27T17:44:29.718Z,27.37
2022-08-27T17:47:00.982Z,27.36
2022-08-27T17:49:27.764Z,27.35
2022-08-27T17:51:59.945Z,27.31
2022-08-27T17:54:35.024Z,27.30
2022-08-27T17:57:04.302Z,27.29
2022-08-27T17:59:30.812Z,27.29
2022-08-27T18:01:57.647Z,27.28
2022-08-27T18:04:24.451Z,27.28
2022-08-27T18:06:50.964Z,27.26
2022-08-27T18:09:17.840Z,27.25
2022-08-27T18:11:45.214Z,27.24
2022-08-27T18:14:12.710Z,27.22
2022-08-27T18:16:44.786Z,27.22
2022-08-27T18:19:11.608Z,27.22
2022-08-27T18:21:42.746Z,27.21
2022-08-27T18:24:14.126Z,27.20
2022-08-27T18:26:40.723Z,27.20
2022-08-27T18:29:07.372Z,27.19
2022-08-27T18:31:34.319Z,27.18
2022-08-27T18:34:02.295Z,27.19
2022-08-27T18:36:29.172Z,27.19
2022-08-27T18:38:55.669Z,27.17
2022-08-27T18:41:23.399Z,27.14
2022-08-27T18:43:50.075Z,27.12
2022-08-27T18:46:17.418Z,27.09
2022-08-27T18:48:44.031Z,27.07
2022-08-27T18:51:13.584Z,27.05
2022-08-27T18:53:41.491Z,27.02
2022-08-27T18:56:10.015Z,27.00
2022-08-27T18:58:38.684Z,26.98
2022-08-27T19:01:10.138Z,26.96
2022-08-27T19:03:45.825Z,26.92
2022-08-27T19:06:13.388Z,26.91
2022-08-27T19:08:40.465Z,26.90
2022-08-27T19:11:07.115Z,26.88
2022-08-27T19:13:33.752Z,26.84
2022-08-27T19:16:24.379Z,26.78
2022-08-27T19:18:51.481Z,26.82
2022-08-27T19:21:18.008Z,26.80
2022-08-27T19:23:44.518Z,26.78
2022-08-27T19:26:23.807Z,26.72
2022-08-27T19:28:50.600Z,26.75
2022-08-27T19:31:17.276Z,26.74
2022-08-27T19:33:44.463Z,26.74
2022-08-27T19:36:15.733Z,26.74
2022-08-27T19:38:43.836Z,26.73
2022-08-27T19:41:10.770Z,26.74
2022-08-27T19:43:37.508Z,26.74
2022-08-27T19:46:05.059Z,26.72
2022-08-27T19:48:33.991Z,26.73
2022-08-27T19:51:00.820Z,26.73
2022-08-27T19:53:28.553Z,26.73
2022-08-27T19:55:55.143Z,26.73
2022-08-27T19:58:21.726Z,26.72
2022-08-27T20:00:48.927Z,26.72
2022-08-27T20:03:15.620Z,26.72
2022-08-27T20:05:43.086Z,26.72
2022-08-27T20:08:09.728Z,26.73
2022-08-27T20:10:39.681Z,26.72
2022-08-27T20:13:07.274Z,26.71
2022-08-27T20:15:35.147Z,26.71
2022-08-27T20:18:02.555Z,26.72
2022-08-27T20:20:29.249Z,26.72
2022-08-27T20:22:56.084Z,26.70
2022-08-27T20:25:23.751Z,26.68
2022-08-27T20:27:51.646Z,26.68
2022-08-27T20:30:22.778Z,26.65
2022-08-27T20:32:50.241Z,26.66
2022-08-27T20:35:17.877Z,26.64
2022-08-27T20:37:46.099Z,26.63
2022-08-27T20:40:21.326Z,26.59
2022-08-27T20:42:47.995Z,26.61
2022-08-27T20:45:15.687Z,26.57
2022-08-27T20:47:44.451Z,26.57
2022-08-27T20:50:12.873Z,26.56
2022-08-27T20:52:40.419Z,26.54
2022-08-27T20:55:09.678Z,26.53
2022-08-27T20:57:36.296Z,26.51
2022-08-27T21:00:20.068Z,26.47
2022-08-27T21:02:46.750Z,26.43
2022-08-27T21:05:16.739Z,26.36
2022-08-27T21:07:44.503Z,26.32
2022-08-27T21:10:11.033Z,26.27
2022-08-27T21:12:37.636Z,26.20
2022-08-27T21:15:07.255Z,26.15
2022-08-27T21:17:34.006Z,26.10
2022-08-27T21:20:00.899Z,26.07
2022-08-27T21:22:27.641Z,26.04
2022-08-27T21:24:55.325Z,26.00
2022-08-27T21:27:21.960Z,25.99
2022-08-27T21:29:48.976Z,25.97
2022-08-27T21:32:16.695Z,25.95
2022-08-27T21:34:43.379Z,25.93
2022-08-27T21:37:11.543Z,25.87
2022-08-27T21:39:40.060Z,25.83
2022-08-27T21:42:07.272Z,25.78
2022-08-27T21:44:34.332Z,25.76
2022-08-27T21:47:01.812Z,25.71
2022-08-27T21:49:28.653Z,25.69
2022-08-27T21:51:55.183Z,25.66
2022-08-27T21:54:23.421Z,25.64
2022-08-27T21:56:52.974Z,25.62
2022-08-27T21:59:20.028Z,25.58
2022-08-27T22:01:46.533Z,25.53
2022-08-27T22:04:13.356Z,25.51
2022-08-27T22:06:39.873Z,25.50
2022-08-27T22:09:06.422Z,25.46
2022-08-27T22:11:32.898Z,25.44
2022-08-27T22:13:59.464Z,25.41
2022-08-27T22:16:26.117Z,25.38
2022-08-27T22:18:54.784Z,25.35
2022-08-27T22:21:22.165Z,25.31
2022-08-27T22:23:51.339Z,25.29
2022-08-27T22:26:19.592Z,25.27
2022-08-27T22:28:46.090Z,25.23
2022-08-27T22:31:12.947Z,25.21
2022-08-27T22:33:39.771Z,25.17
2022-08-27T22:36:06.588Z,25.15
2022-08-27T22:38:34.041Z,25.10
2022-08-27T22:41:00.536Z,25.08
2022-08-27T22:43:27.856Z,25.05
2022-08-27T22:45:54.447Z,25.03
2022-08-27T22:48:21.187Z,25.01
2022-08-27T22:50:47.710Z,24.98
2022-08-27T22:53:14.328Z,24.95
2022-08-27T22:55:40.864Z,24.93
2022-08-27T22:58:07.375Z,24.90
2022-08-27T23:00:37.147Z,24.86
2022-08-27T23:03:06.766Z,24.85
2022-08-27T23:05:42.161Z,24.85
2022-08-27T23:08:10.563Z,24.84
2022-08-27T23:10:37.459Z,24.83
2022-08-27T23:13:05.361Z,24.80
2022-08-27T23:15:31.918Z,24.78
2022-08-27T23:18:01.379Z,24.77
2022-08-27T23:20:28.716Z,24.74
2022-08-27T23:22:55.372Z,24.73
2022-08-27T23:25:43.625Z,24.70
2022-08-27T23:28:14.382Z,24.69
2022-08-27T23:30:44.221Z,24.67
2022-08-27T23:33:12.024Z,24.65
2022-08-27T23:35:38.776Z,24.63
2022-08-27T23:38:05.332Z,24.61
2022-08-27T23:40:31.995Z,24.60
2022-08-27T23:42:58.631Z,24.57
2022-08-27T23:45:26.488Z,24.56
2022-08-27T23:47:53.510Z,24.54
2022-08-27T23:50:21.881Z,24.52
2022-08-27T23:52:55.552Z,24.48
2022-08-27T23:55:22.130Z,24.47
2022-08-27T23:57:49.854Z,24.44
